createdAt,value
2023-05-20T00:00:49.982Z,3.92
2023-05-20T00:03:17.625Z,4.43
2023-05-20T00:05:47.928Z,4.10
2023-05-20T00:08:15.715Z,4.10
2023-05-20T00:10:42.623Z,4.22
2023-05-20T00:13:09.692Z,4.65
2023-05-20T00:15:37.116Z,4.57
2023-05-20T00:18:04.773Z,4.50
2023-05-20T00:20:32.875Z,4.30
2023-05-20T00:22:59.884Z,4.80
2023-05-20T00:25:32.024Z,3.90
2023-05-20T00:27:59.404Z,3.90
2023-05-20T00:30:26.949Z,3.65
2023-05-20T00:32:53.949Z,3.92
2023-05-20T00:35:21.498Z,3.50
2023-05-20T00:37:49.146Z,3.38
2023-05-20T00:40:16.429Z,3.75
2023-05-20T00:42:44.091Z,3.67
2023-05-20T00:45:11.412Z,3.40
2023-05-20T00:47:39.589Z,3.65
2023-05-20T00:50:08.582Z,3.55
2023-05-20T00:52:36.519Z,4.18
2023-05-20T00:55:04.060Z,3.60
2023-05-20T00:57:31.448Z,3.35
2023-05-20T00:59:59.902Z,3.13
2023-05-20T01:02:27.509Z,3.38
2023-05-20T01:04:57.025Z,3.28
2023-05-20T01:07:25.716Z,2.95
2023-05-20T01:10:00.234Z,2.42
2023-05-20T01:12:40.213Z,2.40
2023-05-20T01:15:09.421Z,2.17
2023-05-20T01:17:43.754Z,2.13
2023-05-20T01:20:14.560Z,2.30
2023-05-20T01:22:55.526Z,2.65
2023-05-20T01:25:23.319Z,2.10
2023-05-20T01:27:53.008Z,2.10
2023-05-20T01:30:21.502Z,2.15
2023-05-20T01:32:54.652Z,1.80
2023-05-20T01:35:24.150Z,2.20
2023-05-20T01:37:53.081Z,2.60
2023-05-20T01:40:21.800Z,2.60
2023-05-20T01:42:53.499Z,2.42
2023-05-20T01:45:21.666Z,2.20
2023-05-20T01:47:48.763Z,2.30
2023-05-20T01:50:16.928Z,2.80
2023-05-20T01:52:44.270Z,2.67
2023-05-20T01:55:11.275Z,2.22
2023-05-20T01:57:38.793Z,2.65
2023-05-20T02:00:07.060Z,2.20
2023-05-20T02:02:40.490Z,2.30
2023-05-20T02:05:10.422Z,2.30
2023-05-20T02:07:37.545Z,2.00
2023-05-20T02:10:05.042Z,2.20
2023-05-20T02:12:32.729Z,2.17
2023-05-20T02:14:59.828Z,2.33
2023-05-20T02:17:27.260Z,2.42
2023-05-20T02:19:54.434Z,2.50
2023-05-20T02:22:21.421Z,2.22
2023-05-20T02:24:48.359Z,2.10
2023-05-20T02:27:16.397Z,2.25
2023-05-20T02:29:44.470Z,2.08
2023-05-20T02:32:12.746Z,2.05
2023-05-20T02:34:39.840Z,1.95
2023-05-20T02:37:07.230Z,1.88
2023-05-20T02:39:34.407Z,2.17
2023-05-20T02:42:01.526Z,1.83
2023-05-20T02:44:28.985Z,1.63
2023-05-20T02:46:57.087Z,1.98
2023-05-20T02:49:24.705Z,1.50
2023-05-20T02:51:52.192Z,1.77
2023-05-20T02:54:19.488Z,1.90
2023-05-20T02:56:46.559Z,1.52
2023-05-20T02:59:13.611Z,1.65
2023-05-20T03:01:41.305Z,1.92
2023-05-20T03:04:09.070Z,1.67
2023-05-20T03:06:38.366Z,1.58
2023-05-20T03:09:06.092Z,1.52
2023-05-20T03:11:33.188Z,1.77
2023-05-20T03:14:00.181Z,2.00
2023-05-20T03:16:28.357Z,1.83
2023-05-20T03:18:55.557Z,1.90
2023-05-20T03:21:24.272Z,1.90
2023-05-20T03:23:51.477Z,1.90
2023-05-20T03:26:19.360Z,1.85
2023-05-20T03:28:46.873Z,1.70
2023-05-20T03:31:14.397Z,1.67
2023-05-20T03:33:41.657Z,1.70
2023-05-20T03:36:08.894Z,1.42
2023-05-20T03:38:36.050Z,1.55
2023-05-20T03:41:03.076Z,1.33
2023-05-20T03:43:30.168Z,1.30
2023-05-20T03:45:57.409Z,1.63
2023-05-20T03:48:24.367Z,1.30
2023-05-20T03:50:51.751Z,1.40
2023-05-20T03:53:20.358Z,1.55
2023-05-20T03:55:47.496Z,1.45
2023-05-20T03:58:15.600Z,1.60
2023-05-20T04:00:43.045Z,1.58
2023-05-20T04:03:13.639Z,1.65
2023-05-20T04:05:41.395Z,1.73
2023-05-20T04:08:17.176Z,1.80
2023-05-20T04:10:44.439Z,1.85
2023-05-20T04:13:12.226Z,1.70
2023-05-20T04:15:40.430Z,1.80
2023-05-20T04:18:07.764Z,1.83
2023-05-20T04:20:35.472Z,1.75
2023-05-20T04:23:02.572Z,1.80
2023-05-20T04:25:30.073Z,1.90
2023-05-20T04:27:58.053Z,2.10
2023-05-20T04:30:25.272Z,2.15
2023-05-20T04:32:52.808Z,1.90
2023-05-20T04:35:20.009Z,1.85
2023-05-20T04:37:49.185Z,2.45
2023-05-20T04:40:17.451Z,2.60
2023-05-20T04:42:45.001Z,2.30
2023-05-20T04:45:13.742Z,2.20
2023-05-20T04:47:42.246Z,2.03
2023-05-20T04:50:11.212Z,1.70
2023-05-20T04:52:46.313Z,2.03
2023-05-20T04:55:16.352Z,1.90
2023-05-20T04:57:43.793Z,2.10
2023-05-20T05:00:14.306Z,1.90
2023-05-20T05:02:44.630Z,2.10
2023-05-20T05:05:12.194Z,1.80
2023-05-20T05:07:41.557Z,2.10
2023-05-20T05:10:09.009Z,2.60
2023-05-20T05:12:36.496Z,1.77
2023-05-20T05:15:04.737Z,2.30
2023-05-20T05:17:31.865Z,1.95
2023-05-20T05:19:59.326Z,1.88
2023-05-20T05:22:37.103Z,2.10
2023-05-20T05:25:04.443Z,2.28
2023-05-20T05:27:31.763Z,2.50
2023-05-20T05:29:58.919Z,2.00
2023-05-20T05:32:26.080Z,2.38
2023-05-20T05:34:53.267Z,2.25
2023-05-20T05:37:20.717Z,1.98
2023-05-20T05:39:48.505Z,1.70
2023-05-20T05:42:15.714Z,1.98
2023-05-20T05:44:47.702Z,1.52
2023-05-20T05:47:15.953Z,1.92
2023-05-20T05:49:43.144Z,1.75
2023-05-20T05:52:10.163Z,1.70
2023-05-20T05:54:37.475Z,1.50
2023-05-20T05:57:07.148Z,1.50
2023-05-20T05:59:35.725Z,1.48
2023-05-20T06:02:03.001Z,1.70
2023-05-20T06:04:30.601Z,1.90
2023-05-20T06:07:01.442Z,1.67
2023-05-20T06:09:28.888Z,2.03
2023-05-20T06:11:56.196Z,2.42
2023-05-20T06:14:23.251Z,1.60
2023-05-20T06:16:50.211Z,1.30
2023-05-20T06:19:18.175Z,1.55
2023-05-20T06:21:45.573Z,1.63
2023-05-20T06:24:12.547Z,1.98
2023-05-20T06:26:40.738Z,1.83
2023-05-20T06:29:08.559Z,1.70
2023-05-20T06:31:35.969Z,1.70
2023-05-20T06:34:03.079Z,2.00
2023-05-20T06:36:32.373Z,2.38
2023-05-20T06:39:00.789Z,2.30
2023-05-20T06:41:28.076Z,2.03
2023-05-20T06:43:55.263Z,2.10
2023-05-20T06:46:53.076Z,2.25
2023-05-20T06:49:20.500Z,2.22
2023-05-20T06:51:48.681Z,2.00
2023-05-20T06:54:15.634Z,2.38
2023-05-20T06:56:44.436Z,2.30
2023-05-20T06:59:14.490Z,2.30
2023-05-20T07:01:44.734Z,2.53
2023-05-20T07:04:12.741Z,2.13
2023-05-20T07:06:39.900Z,2.28
2023-05-20T07:09:07.217Z,2.15
2023-05-20T07:11:34.599Z,2.15
2023-05-20T07:14:01.745Z,2.15
2023-05-20T07:16:32.598Z,2.20
2023-05-20T07:19:00.547Z,2.00
2023-05-20T07:21:27.507Z,2.20
2023-05-20T07:24:03.479Z,1.92
2023-05-20T07:26:33.808Z,2.05
2023-05-20T07:29:02.125Z,2.15
2023-05-20T07:31:29.308Z,1.80
2023-05-20T07:33:56.385Z,2.13
2023-05-20T07:36:29.720Z,2.50
2023-05-20T07:39:06.184Z,2.22
2023-05-20T07:41:36.833Z,2.38
2023-05-20T07:44:05.600Z,2.55
2023-05-20T07:46:38.536Z,2.05
2023-05-20T07:49:07.449Z,1.90
2023-05-20T07:51:35.516Z,2.28
2023-05-20T07:54:03.616Z,2.47
2023-05-20T07:56:30.840Z,2.45
2023-05-20T07:58:59.536Z,2.22
2023-05-20T08:01:30.985Z,2.60
2023-05-20T08:03:58.987Z,2.60
2023-05-20T08:06:29.373Z,2.75
2023-05-20T08:08:57.114Z,2.78
2023-05-20T08:11:32.139Z,2.20
2023-05-20T08:14:00.208Z,2.30
2023-05-20T08:16:30.285Z,2.90
2023-05-20T08:18:57.633Z,2.97
2023-05-20T08:21:24.873Z,2.80
2023-05-20T08:23:55.057Z,2.40
2023-05-20T08:26:22.737Z,2.38
2023-05-20T08:28:50.834Z,2.60
2023-05-20T08:31:19.656Z,2.17
2023-05-20T08:33:46.752Z,2.13
2023-05-20T08:36:13.980Z,2.10
2023-05-20T08:38:41.170Z,2.38
2023-05-20T08:41:08.338Z,2.10
2023-05-20T08:43:38.300Z,1.90
2023-05-20T08:46:07.076Z,2.38
2023-05-20T08:48:36.306Z,2.00
2023-05-20T08:51:04.504Z,2.45
2023-05-20T08:53:31.557Z,2.45
2023-05-20T08:56:03.832Z,2.10
2023-05-20T08:58:32.991Z,1.70
2023-05-20T09:01:03.249Z,2.53
2023-05-20T09:03:30.681Z,1.90
2023-05-20T09:06:05.603Z,1.90
2023-05-20T09:08:34.135Z,1.85
2023-05-20T09:11:01.639Z,2.17
2023-05-20T09:13:31.548Z,2.20
2023-05-20T09:16:01.155Z,1.67
2023-05-20T09:18:29.441Z,1.48
2023-05-20T09:20:56.843Z,1.83
2023-05-20T09:23:25.726Z,1.60
2023-05-20T09:25:53.223Z,1.73
2023-05-20T09:28:24.344Z,1.40
2023-05-20T09:30:52.002Z,1.95
2023-05-20T09:33:19.046Z,1.70
2023-05-20T09:35:47.274Z,1.55
2023-05-20T09:38:15.717Z,1.70
2023-05-20T09:40:45.157Z,1.70
2023-05-20T09:43:13.892Z,1.88
2023-05-20T09:45:41.880Z,2.38
2023-05-20T09:48:11.934Z,2.05
2023-05-20T09:50:39.685Z,1.90
2023-05-20T09:53:08.030Z,1.67
2023-05-20T09:55:35.768Z,2.50
2023-05-20T09:58:03.466Z,2.60
2023-05-20T10:00:31.708Z,2.88
2023-05-20T10:02:59.866Z,2.42
2023-05-20T10:05:52.504Z,2.53
2023-05-20T10:08:31.788Z,2.20
2023-05-20T10:11:20.210Z,3.28
2023-05-20T10:13:59.437Z,2.35
2023-05-20T10:16:54.461Z,3.00
2023-05-20T10:19:34.821Z,2.47
2023-05-20T10:22:10.006Z,2.72
2023-05-20T10:24:40.915Z,2.63
2023-05-20T10:27:16.310Z,3.00
2023-05-20T10:29:50.558Z,3.47
2023-05-20T10:32:34.657Z,2.72
2023-05-20T10:35:09.414Z,2.80
2023-05-20T10:37:44.315Z,2.42
2023-05-20T10:40:13.861Z,2.53
2023-05-20T10:42:41.779Z,2.95
2023-05-20T10:45:10.008Z,2.72
2023-05-20T10:47:42.217Z,2.60
2023-05-20T10:50:27.781Z,2.22
2023-05-20T10:52:56.590Z,2.38
2023-05-20T10:55:23.511Z,2.45
2023-05-20T10:57:51.808Z,2.88
2023-05-20T11:00:19.072Z,2.22
2023-05-20T11:02:47.582Z,2.65
2023-05-20T11:05:17.742Z,2.30
2023-05-20T11:07:45.990Z,2.55
2023-05-20T11:10:13.125Z,2.47
2023-05-20T11:12:40.780Z,2.33
2023-05-20T11:15:08.260Z,2.55
2023-05-20T11:17:35.331Z,2.53
2023-05-20T11:20:02.494Z,2.15
2023-05-20T11:22:29.523Z,2.40
2023-05-20T11:24:56.415Z,2.75
2023-05-20T11:27:23.491Z,2.20
2023-05-20T11:29:51.156Z,2.45
2023-05-20T11:32:20.653Z,2.72
2023-05-20T11:34:51.987Z,2.28
2023-05-20T11:37:20.225Z,3.60
2023-05-20T11:39:47.365Z,2.00
2023-05-20T11:42:16.295Z,2.20
2023-05-20T11:44:46.629Z,2.75
2023-05-20T11:47:13.709Z,2.33
2023-05-20T11:49:41.065Z,2.45
2023-05-20T11:52:12.777Z,2.33
2023-05-20T11:54:39.757Z,3.03
2023-05-20T11:57:07.276Z,2.50
2023-05-20T11:59:34.744Z,2.60
2023-05-20T12:02:01.737Z,2.72
2023-05-20T12:04:28.818Z,2.60
2023-05-20T12:06:56.334Z,2.40
2023-05-20T12:09:23.742Z,2.90
2023-05-20T12:11:51.054Z,2.50
2023-05-20T12:14:18.439Z,2.75
2023-05-20T12:16:45.455Z,2.10
2023-05-20T12:19:12.476Z,2.80
2023-05-20T12:21:41.853Z,2.85
2023-05-20T12:24:09.451Z,3.20
2023-05-20T12:26:36.700Z,2.70
2023-05-20T12:29:03.751Z,3.30
2023-05-20T12:31:33.123Z,3.35
2023-05-20T12:34:01.610Z,3.00
2023-05-20T12:36:29.024Z,4.00
2023-05-20T12:38:58.560Z,2.78
2023-05-20T12:41:26.215Z,2.90
2023-05-20T12:43:54.551Z,2.67
2023-05-20T12:46:21.681Z,3.28
2023-05-20T12:48:48.956Z,3.00
2023-05-20T12:51:15.954Z,3.17
2023-05-20T12:53:42.959Z,3.65
2023-05-20T12:56:09.950Z,2.78
2023-05-20T12:58:37.121Z,3.17
2023-05-20T13:01:04.422Z,3.08
2023-05-20T13:03:31.517Z,2.95
2023-05-20T13:05:59.592Z,2.90
2023-05-20T13:08:28.423Z,2.92
2023-05-20T13:10:56.008Z,3.72
2023-05-20T13:13:23.890Z,2.22
2023-05-20T13:15:51.812Z,3.10
2023-05-20T13:18:19.586Z,2.35
2023-05-20T13:20:46.684Z,2.60
2023-05-20T13:23:13.713Z,2.65
2023-05-20T13:25:41.160Z,3.20
2023-05-20T13:28:08.310Z,3.05
2023-05-20T13:30:35.484Z,2.50
2023-05-20T13:33:02.692Z,2.67
2023-05-20T13:35:29.902Z,2.22
2023-05-20T13:37:56.846Z,2.95
2023-05-20T13:40:23.860Z,2.58
2023-05-20T13:42:50.944Z,2.92
2023-05-20T13:45:18.869Z,3.47
2023-05-20T13:47:45.982Z,3.17
2023-05-20T13:50:12.986Z,3.03
2023-05-20T13:52:40.069Z,2.90
2023-05-20T13:55:07.828Z,2.75
2023-05-20T13:57:34.912Z,2.70
2023-05-20T14:00:02.119Z,2.67
2023-05-20T14:02:36.025Z,2.80
2023-05-20T14:05:03.605Z,2.92
2023-05-20T14:07:30.591Z,3.08
2023-05-20T14:09:57.580Z,3.63
2023-05-20T14:12:24.630Z,3.38
2023-05-20T14:14:51.844Z,3.15
2023-05-20T14:17:18.881Z,2.75
2023-05-20T14:19:46.601Z,3.28
2023-05-20T14:22:15.478Z,3.10
2023-05-20T14:24:42.602Z,3.50
2023-05-20T14:27:09.970Z,3.10
2023-05-20T14:29:37.092Z,3.50
2023-05-20T14:32:05.255Z,3.00
2023-05-20T14:34:32.369Z,2.97
2023-05-20T14:36:59.321Z,3.50
2023-05-20T14:39:26.308Z,3.53
2023-05-20T14:41:53.282Z,4.45
2023-05-20T14:44:20.203Z,4.07
2023-05-20T14:46:47.636Z,3.50
2023-05-20T14:49:14.702Z,3.45
2023-05-20T14:51:42.483Z,3.28
2023-05-20T14:54:10.541Z,3.33
2023-05-20T14:56:38.006Z,3.90
2023-05-20T14:59:05.048Z,3.85
2023-05-20T15:01:32.350Z,3.40
2023-05-20T15:03:59.546Z,3.00
2023-05-20T15:06:26.559Z,3.00
2023-05-20T15:08:53.772Z,2.85
2023-05-20T15:11:21.548Z,3.35
2023-05-20T15:13:48.545Z,3.03
2023-05-20T15:16:15.953Z,3.10
2023-05-20T15:18:42.989Z,3.10
2023-05-20T15:21:09.978Z,2.60
2023-05-20T15:23:36.912Z,2.88
2023-05-20T15:26:04.641Z,2.70
2023-05-20T15:28:31.736Z,3.10
2023-05-20T15:30:58.974Z,3.03
2023-05-20T15:33:26.069Z,2.88
2023-05-20T15:35:53.177Z,3.28
2023-05-20T15:38:20.219Z,2.72
2023-05-20T15:40:50.318Z,2.97
2023-05-20T15:43:17.827Z,2.60
2023-05-20T15:45:46.950Z,3.33
2023-05-20T15:48:14.423Z,2.67
2023-05-20T15:50:41.576Z,2.72
2023-05-20T15:53:09.708Z,2.88
2023-05-20T15:55:36.723Z,2.80
2023-05-20T15:58:03.795Z,2.42
2023-05-20T16:00:31.757Z,2.40
2023-05-20T16:02:59.154Z,2.63
2023-05-20T16:05:26.331Z,2.80
2023-05-20T16:07:57.077Z,2.60
2023-05-20T16:10:26.060Z,1.98
2023-05-20T16:12:53.245Z,2.33
2023-05-20T16:15:20.277Z,2.67
2023-05-20T16:17:47.226Z,2.10
2023-05-20T16:20:14.245Z,2.00
2023-05-20T16:22:41.412Z,2.10
2023-05-20T16:25:11.033Z,2.33
2023-05-20T16:27:39.021Z,2.28
2023-05-20T16:30:09.880Z,1.95
2023-05-20T16:32:36.947Z,1.98
2023-05-20T16:35:05.055Z,2.22
2023-05-20T16:37:33.250Z,2.58
2023-05-20T16:40:00.900Z,1.67
2023-05-20T16:42:28.326Z,1.80
2023-05-20T16:44:55.437Z,2.78
2023-05-20T16:47:22.525Z,2.05
2023-05-20T16:49:49.519Z,2.33
2023-05-20T16:52:16.924Z,1.90
2023-05-20T16:54:44.050Z,1.90
2023-05-20T16:57:12.658Z,2.08
2023-05-20T16:59:39.621Z,2.20
2023-05-20T17:02:06.913Z,2.38
2023-05-20T17:04:33.840Z,2.33
2023-05-20T17:07:01.885Z,2.30
2023-05-20T17:09:32.051Z,2.50
2023-05-20T17:11:59.099Z,2.38
2023-05-20T17:14:26.198Z,2.10
2023-05-20T17:16:53.265Z,1.70
2023-05-20T17:19:20.409Z,2.05
2023-05-20T17:21:47.449Z,1.90
2023-05-20T17:24:14.501Z,2.30
2023-05-20T17:26:41.548Z,3.00
2023-05-20T17:29:09.148Z,2.30
2023-05-20T17:31:36.316Z,2.15
2023-05-20T17:34:03.507Z,2.30
2023-05-20T17:36:31.639Z,2.28
2023-05-20T17:38:58.588Z,2.42
2023-05-20T17:41:26.467Z,2.40
2023-05-20T17:43:53.411Z,2.13
2023-05-20T17:46:23.766Z,2.55
2023-05-20T17:48:51.117Z,1.75
2023-05-20T17:51:18.077Z,2.75
2023-05-20T17:53:45.232Z,2.60
2023-05-20T17:56:12.655Z,2.35
2023-05-20T17:58:39.593Z,2.17
2023-05-20T18:01:09.382Z,2.60
2023-05-20T18:03:36.564Z,2.20
2023-05-20T18:06:06.210Z,2.67
2023-05-20T18:08:33.993Z,2.42
2023-05-20T18:11:01.264Z,2.25
2023-05-20T18:13:28.274Z,2.72
2023-05-20T18:15:55.189Z,2.33
2023-05-20T18:18:22.202Z,3.28
2023-05-20T18:20:51.672Z,3.35
2023-05-20T18:23:18.727Z,2.75
2023-05-20T18:25:45.778Z,1.90
2023-05-20T18:28:13.378Z,2.75
2023-05-20T18:31:06.338Z,2.92
2023-05-20T18:33:33.705Z,2.33
2023-05-20T18:36:00.883Z,2.72
2023-05-20T18:38:27.933Z,2.60
2023-05-20T18:40:55.091Z,2.50
2023-05-20T18:43:22.050Z,3.15
2023-05-20T18:45:49.018Z,2.72
2023-05-20T18:48:25.617Z,2.88
2023-05-20T18:50:53.424Z,3.95
2023-05-20T18:53:20.353Z,3.08
2023-05-20T18:55:47.803Z,2.75
2023-05-20T18:58:15.089Z,2.70
2023-05-20T19:00:42.372Z,3.05
2023-05-20T19:03:11.996Z,3.20
2023-05-20T19:05:39.460Z,2.97
2023-05-20T19:08:06.704Z,3.10
2023-05-20T19:10:34.152Z,2.60
2023-05-20T19:13:01.326Z,2.70
2023-05-20T19:15:30.288Z,3.00
2023-05-20T19:17:57.403Z,3.38
2023-05-20T19:20:24.381Z,3.15
2023-05-20T19:22:52.496Z,2.72
2023-05-20T19:25:20.284Z,3.00
2023-05-20T19:27:47.445Z,2.80
2023-05-20T19:30:14.478Z,2.97
2023-05-20T19:32:41.528Z,2.95
2023-05-20T19:35:08.994Z,3.60
2023-05-20T19:37:36.423Z,3.78
2023-05-20T19:40:04.098Z,3.35
2023-05-20T19:42:31.129Z,3.60
2023-05-20T19:44:58.163Z,3.72
2023-05-20T19:47:25.292Z,3.45
2023-05-20T19:49:52.370Z,5.05
2023-05-20T19:52:20.184Z,4.25
2023-05-20T19:54:47.616Z,4.15
2023-05-20T19:57:14.645Z,4.75
2023-05-20T19:59:41.979Z,4.43
2023-05-20T20:02:09.049Z,4.57
2023-05-20T20:04:36.576Z,4.50
2023-05-20T20:07:03.951Z,4.07
2023-05-20T20:09:31.366Z,3.28
2023-05-20T20:11:58.398Z,3.80
2023-05-20T20:14:25.436Z,3.33
2023-05-20T20:16:53.922Z,2.55
2023-05-20T20:19:23.779Z,3.00
2023-05-20T20:21:53.350Z,3.40
2023-05-20T20:24:20.476Z,3.05
2023-05-20T20:26:47.755Z,3.25
2023-05-20T20:29:15.363Z,3.60
2023-05-20T20:31:42.481Z,4.32
2023-05-20T20:34:09.534Z,3.83
2023-05-20T20:36:36.454Z,3.90
2023-05-20T20:39:05.047Z,3.72
2023-05-20T20:41:33.389Z,3.30
2023-05-20T20:44:03.903Z,3.35
2023-05-20T20:46:31.293Z,3.45
2023-05-20T20:48:58.226Z,3.90
2023-05-20T20:51:25.111Z,3.78
2023-05-20T20:53:52.392Z,3.10
2023-05-20T20:56:19.417Z,3.25
2023-05-20T20:58:46.520Z,3.30
2023-05-20T21:01:17.588Z,3.25
2023-05-20T21:03:45.314Z,3.15
2023-05-20T21:06:15.493Z,3.28
2023-05-20T21:08:42.722Z,3.47
2023-05-20T21:11:09.723Z,3.70
2023-05-20T21:13:38.233Z,2.90
2023-05-20T21:16:06.915Z,3.42
2023-05-20T21:18:33.864Z,3.47
2023-05-20T21:21:01.058Z,3.70
2023-05-20T21:23:28.388Z,3.70
2023-05-20T21:25:55.470Z,4.07
2023-05-20T21:28:22.398Z,3.60
2023-05-20T21:30:49.512Z,4.00
2023-05-20T21:33:16.801Z,3.50
2023-05-20T21:35:43.815Z,4.22
2023-05-20T21:38:11.156Z,5.15
2023-05-20T21:40:38.178Z,6.43
2023-05-20T21:43:05.168Z,7.50
2023-05-20T21:45:32.120Z,6.90
2023-05-20T21:47:59.296Z,6.68
2023-05-20T21:50:26.268Z,4.93
2023-05-20T21:52:53.204Z,3.70
2023-05-20T21:55:23.754Z,3.58
2023-05-20T21:57:51.418Z,3.75
2023-05-20T22:00:19.299Z,3.22
2023-05-20T22:02:50.964Z,3.22
2023-05-20T22:05:18.225Z,3.72
2023-05-20T22:07:45.206Z,3.47
2023-05-20T22:10:13.815Z,3.65
2023-05-20T22:12:42.739Z,3.65
2023-05-20T22:15:10.580Z,3.63
2023-05-20T22:17:38.295Z,3.78
2023-05-20T22:20:13.427Z,3.80
2023-05-20T22:22:40.524Z,3.35
2023-05-20T22:25:07.959Z,3.00
2023-05-20T22:27:35.179Z,3.50
2023-05-20T22:30:02.561Z,3.75
2023-05-20T22:32:29.534Z,3.30
2023-05-20T22:34:58.506Z,3.58
2023-05-20T22:37:28.991Z,4.30
2023-05-20T22:39:56.747Z,3.13
2023-05-20T22:42:23.725Z,3.38
2023-05-20T22:44:50.828Z,3.28
2023-05-20T22:47:18.005Z,3.25
2023-05-20T22:49:45.912Z,4.15
2023-05-20T22:52:12.948Z,3.42
2023-05-20T22:54:40.748Z,3.13
2023-05-20T22:57:08.199Z,3.35
2023-05-20T22:59:39.725Z,3.10
2023-05-20T23:02:06.959Z,3.00
2023-05-20T23:04:34.745Z,3.13
2023-05-20T23:07:01.982Z,2.90
2023-05-20T23:09:29.235Z,2.95
2023-05-20T23:11:56.467Z,3.33
2023-05-20T23:14:23.777Z,2.80
2023-05-20T23:16:51.457Z,2.90
2023-05-20T23:19:18.483Z,2.90
2023-05-20T23:21:45.892Z,2.97
2023-05-20T23:24:12.916Z,2.78
2023-05-20T23:26:39.990Z,2.55
2023-05-20T23:29:07.007Z,4.25
2023-05-20T23:31:34.453Z,2.78
2023-05-20T23:34:03.849Z,2.58
2023-05-20T23:36:35.246Z,3.30
2023-05-20T23:39:03.609Z,3.08
2023-05-20T23:41:30.790Z,2.47
2023-05-20T23:43:57.764Z,3.03
2023-05-20T23:46:24.853Z,3.55
2023-05-20T23:48:53.130Z,3.17
2023-05-20T23:51:20.103Z,3.28
2023-05-20T23:53:47.097Z,3.22
2023-05-20T23:56:14.177Z,3.60
2023-05-20T23:58:41.249Z,3.40
